createdAt,value
2019-01-31T00:01:01.180Z,9.00
2019-01-31T00:04:04.317Z,16.50
2019-01-31T00:06:52.526Z,15.27
2019-01-31T00:09:49.663Z,14.37
2019-01-31T00:12:31.879Z,18.30
2019-01-31T00:15:15.459Z,22.67
2019-01-31T00:18:05.267Z,12.73
2019-01-31T00:20:56.193Z,14.67
2019-01-31T00:23:44.282Z,13.27
2019-01-31T00:26:32.402Z,6.90
2019-01-31T00:29:04.303Z,6.53
2019-01-31T00:31:52.451Z,5.03
2019-01-31T00:34:31.104Z,5.57
2019-01-31T00:37:07.102Z,6.20
2019-01-31T00:40:01.046Z,6.77
2019-01-31T00:42:33.295Z,6.57
2019-01-31T00:45:27.454Z,5.90
2019-01-31T00:48:02.983Z,5.73
2019-01-31T00:50:38.905Z,5.50
2019-01-31T00:53:38.950Z,5.07
2019-01-31T00:56:18.353Z,4.90
2019-01-31T00:59:15.537Z,5.47
2019-01-31T01:01:48.851Z,5.60
2019-01-31T01:04:25.148Z,4.80
2019-01-31T01:07:01.282Z,4.70
2019-01-31T01:09:41.983Z,4.50
2019-01-31T01:12:28.763Z,5.63
2019-01-31T01:15:19.662Z,6.70
2019-01-31T01:17:51.100Z,8.83
2019-01-31T01:20:39.202Z,9.17
2019-01-31T01:23:20.183Z,10.87
2019-01-31T01:26:03.998Z,8.80
2019-01-31T01:29:00.902Z,5.73
2019-01-31T01:31:40.959Z,6.70
2019-01-31T01:34:16.653Z,7.40
2019-01-31T01:36:48.813Z,8.53
2019-01-31T01:39:24.743Z,9.47
2019-01-31T01:42:03.196Z,7.30
2019-01-31T01:44:57.240Z,9.00
2019-01-31T01:47:38.067Z,8.43
2019-01-31T01:50:25.040Z,6.77
2019-01-31T01:52:59.014Z,9.03
2019-01-31T01:55:56.383Z,6.50
2019-01-31T01:58:40.191Z,7.13
2019-01-31T02:01:22.927Z,3.77
2019-01-31T02:04:00.131Z,5.90
2019-01-31T02:06:36.600Z,4.07
2019-01-31T02:09:30.082Z,4.37
2019-01-31T02:12:09.051Z,3.67
2019-01-31T02:15:03.262Z,3.30
2019-01-31T02:17:36.093Z,3.20
2019-01-31T02:20:21.690Z,3.17
2019-01-31T02:23:02.299Z,4.10
2019-01-31T02:25:53.988Z,4.03
2019-01-31T02:28:26.112Z,3.60
2019-01-31T02:31:17.404Z,5.13
2019-01-31T02:34:11.691Z,6.50
2019-01-31T02:36:44.223Z,5.00
2019-01-31T02:39:17.849Z,6.10
2019-01-31T02:41:55.094Z,6.50
2019-01-31T02:44:29.149Z,5.73
2019-01-31T02:47:05.182Z,5.83
2019-01-31T02:49:37.642Z,5.03
2019-01-31T02:52:28.503Z,6.13
2019-01-31T02:55:19.682Z,5.33
2019-01-31T02:58:07.811Z,5.47
2019-01-31T03:00:42.509Z,5.50
2019-01-31T03:03:24.145Z,4.40
2019-01-31T03:05:57.483Z,5.30
2019-01-31T03:08:30.015Z,5.30
2019-01-31T03:11:13.991Z,5.33
2019-01-31T03:13:55.058Z,3.40
2019-01-31T03:16:37.091Z,4.93
2019-01-31T03:19:28.195Z,5.90
2019-01-31T03:22:16.318Z,5.10
2019-01-31T03:25:02.375Z,3.10
2019-01-31T03:27:37.626Z,4.70
2019-01-31T03:30:24.872Z,3.10
2019-01-31T03:33:13.312Z,4.00
2019-01-31T03:36:01.474Z,4.53
2019-01-31T03:38:58.592Z,5.17
2019-01-31T03:41:31.978Z,3.20
2019-01-31T03:44:12.567Z,3.33
2019-01-31T03:46:48.309Z,4.10
2019-01-31T03:49:24.217Z,4.97
2019-01-31T03:52:01.538Z,4.33
2019-01-31T03:54:52.506Z,5.23
2019-01-31T03:57:40.608Z,5.47
2019-01-31T04:00:17.002Z,2.90
2019-01-31T04:02:52.202Z,2.20
2019-01-31T04:05:40.395Z,3.13
2019-01-31T04:08:09.699Z,3.53
2019-01-31T04:10:38.753Z,3.30
2019-01-31T04:13:07.709Z,2.83
2019-01-31T04:15:36.763Z,3.60
2019-01-31T04:18:05.738Z,6.20
2019-01-31T04:20:34.792Z,3.50
2019-01-31T04:23:03.920Z,3.30
2019-01-31T04:25:32.903Z,3.10
2019-01-31T04:28:01.869Z,2.80
2019-01-31T04:30:30.943Z,3.70
2019-01-31T04:32:59.970Z,3.80
2019-01-31T04:35:29.025Z,3.20
2019-01-31T04:37:57.997Z,3.60
2019-01-31T04:40:31.435Z,2.67
2019-01-31T04:42:57.721Z,3.00
2019-01-31T04:45:26.695Z,2.87
2019-01-31T04:47:56.472Z,3.40
2019-01-31T04:50:25.674Z,4.20
2019-01-31T04:52:54.670Z,3.67
2019-01-31T04:55:23.740Z,3.60
2019-01-31T04:57:52.714Z,3.97
2019-01-31T05:00:21.704Z,3.60
2019-01-31T05:02:50.680Z,4.03
2019-01-31T05:05:19.739Z,3.53
2019-01-31T05:07:48.704Z,3.93
2019-01-31T05:10:17.768Z,3.03
2019-01-31T05:12:46.763Z,3.50
2019-01-31T05:15:15.823Z,3.90
2019-01-31T05:17:44.868Z,3.07
2019-01-31T05:20:15.162Z,2.60
2019-01-31T05:22:44.190Z,3.03
2019-01-31T05:25:13.437Z,3.10
2019-01-31T05:27:42.451Z,2.70
2019-01-31T05:30:12.150Z,2.77
2019-01-31T05:32:41.126Z,2.70
2019-01-31T05:35:10.376Z,2.87
2019-01-31T05:37:39.356Z,3.20
2019-01-31T05:40:09.449Z,3.00
2019-01-31T05:42:38.464Z,3.40
2019-01-31T05:45:08.865Z,3.80
2019-01-31T05:47:37.855Z,3.20
2019-01-31T05:50:08.646Z,3.37
2019-01-31T05:52:37.607Z,3.43
2019-01-31T05:55:06.627Z,2.83
2019-01-31T05:57:35.667Z,2.77
2019-01-31T06:00:05.283Z,3.57
2019-01-31T06:02:34.361Z,3.10
2019-01-31T06:05:03.455Z,2.90
2019-01-31T06:07:32.442Z,3.13
2019-01-31T06:10:01.442Z,3.17
2019-01-31T06:12:30.423Z,3.73
2019-01-31T06:14:59.523Z,2.70
2019-01-31T06:17:28.674Z,3.80
2019-01-31T06:19:57.690Z,3.27
2019-01-31T06:22:26.791Z,3.20
2019-01-31T06:24:55.848Z,3.67
2019-01-31T06:27:24.834Z,3.23
2019-01-31T06:29:53.879Z,3.67
2019-01-31T06:32:22.963Z,3.50
2019-01-31T06:34:51.939Z,3.20
2019-01-31T06:37:20.930Z,3.37
2019-01-31T06:39:49.905Z,3.27
2019-01-31T06:42:18.944Z,3.10
2019-01-31T06:44:47.928Z,3.30
2019-01-31T06:47:16.972Z,3.20
2019-01-31T06:49:46.013Z,3.37
2019-01-31T06:52:15.027Z,3.30
2019-01-31T06:54:44.108Z,2.80
2019-01-31T06:57:13.111Z,3.47
2019-01-31T06:59:42.104Z,3.50
2019-01-31T07:02:11.455Z,3.43
2019-01-31T07:04:40.414Z,4.27
2019-01-31T07:07:12.392Z,4.47
2019-01-31T07:09:41.429Z,4.03
2019-01-31T07:12:10.539Z,3.97
2019-01-31T07:14:39.538Z,4.00
2019-01-31T07:17:08.608Z,4.00
2019-01-31T07:19:37.603Z,3.90
2019-01-31T07:22:06.595Z,3.87
2019-01-31T07:24:35.611Z,3.70
2019-01-31T07:27:04.703Z,3.90
2019-01-31T07:29:33.751Z,4.30
2019-01-31T07:32:03.738Z,4.10
2019-01-31T07:34:32.789Z,4.10
2019-01-31T07:37:01.856Z,3.80
2019-01-31T07:39:30.909Z,3.73
2019-01-31T07:41:59.898Z,3.80
2019-01-31T07:44:28.875Z,3.73
2019-01-31T07:46:57.860Z,3.40
2019-01-31T07:49:26.834Z,4.00
2019-01-31T07:51:55.931Z,3.37
2019-01-31T07:54:24.932Z,4.10
2019-01-31T07:56:54.020Z,3.80
2019-01-31T07:59:23.002Z,4.30
2019-01-31T08:01:51.991Z,4.20
2019-01-31T08:04:20.967Z,4.70
2019-01-31T08:06:49.956Z,4.10
2019-01-31T08:09:18.922Z,4.13
2019-01-31T08:11:52.795Z,3.60
2019-01-31T08:14:18.664Z,3.93
2019-01-31T08:16:47.653Z,3.97
2019-01-31T08:19:17.624Z,3.70
2019-01-31T08:21:46.604Z,3.43
2019-01-31T08:24:15.595Z,3.53
2019-01-31T08:26:44.561Z,4.30
2019-01-31T08:29:13.699Z,3.80
2019-01-31T08:31:42.922Z,4.17
2019-01-31T08:34:11.959Z,3.63
2019-01-31T08:36:40.943Z,3.73
2019-01-31T08:39:10.031Z,3.63
2019-01-31T08:41:39.002Z,3.50
2019-01-31T08:44:08.030Z,3.63
2019-01-31T08:46:37.177Z,3.57
2019-01-31T08:49:06.195Z,4.20
2019-01-31T08:51:35.160Z,4.30
2019-01-31T08:54:04.282Z,3.97
2019-01-31T08:56:33.356Z,4.53
2019-01-31T08:59:02.388Z,3.67
2019-01-31T09:01:31.446Z,4.17
2019-01-31T09:04:02.579Z,3.73
2019-01-31T09:06:31.547Z,4.30
2019-01-31T09:09:00.569Z,4.07
2019-01-31T09:11:29.625Z,4.70
2019-01-31T09:13:58.691Z,4.90
2019-01-31T09:16:27.751Z,5.20
2019-01-31T09:18:56.995Z,4.67
2019-01-31T09:21:32.023Z,5.00
2019-01-31T09:24:20.253Z,5.47
2019-01-31T09:27:26.567Z,4.27
2019-01-31T09:30:13.068Z,4.78
2019-01-31T09:32:49.056Z,6.28
2019-01-31T09:35:20.490Z,4.40
2019-01-31T09:38:06.079Z,4.00
2019-01-31T09:40:47.925Z,4.20
2019-01-31T09:43:36.115Z,4.67
2019-01-31T09:46:12.090Z,4.13
2019-01-31T09:49:06.276Z,4.43
2019-01-31T09:52:06.184Z,4.93
2019-01-31T09:54:54.295Z,5.20
2019-01-31T09:57:42.540Z,5.40
2019-01-31T10:00:45.896Z,4.60
2019-01-31T10:03:20.560Z,4.80
2019-01-31T10:05:58.285Z,5.70
2019-01-31T10:08:46.508Z,4.30
2019-01-31T10:11:40.512Z,4.00
2019-01-31T10:14:28.779Z,4.63
2019-01-31T10:17:23.116Z,4.73
2019-01-31T10:20:07.644Z,4.20
2019-01-31T10:22:49.616Z,5.63
2019-01-31T10:25:40.502Z,5.73
2019-01-31T10:28:28.679Z,6.33
2019-01-31T10:31:01.529Z,6.27
2019-01-31T10:33:52.677Z,4.37
2019-01-31T10:36:49.619Z,5.70
2019-01-31T10:39:27.918Z,5.13
2019-01-31T10:42:03.993Z,4.50
2019-01-31T10:44:52.200Z,4.93
2019-01-31T10:47:40.324Z,5.33
2019-01-31T10:50:23.548Z,4.70
2019-01-31T10:53:02.983Z,4.70
2019-01-31T10:55:41.364Z,4.50
2019-01-31T10:58:32.699Z,4.83
2019-01-31T11:01:20.886Z,4.70
2019-01-31T11:04:14.838Z,4.67
2019-01-31T11:06:49.082Z,5.20
2019-01-31T11:09:42.776Z,5.13
2019-01-31T11:12:30.393Z,5.20
2019-01-31T11:15:21.619Z,4.43
2019-01-31T11:18:18.661Z,5.20
2019-01-31T11:21:05.431Z,5.50
2019-01-31T11:23:47.703Z,5.17
2019-01-31T11:26:35.912Z,4.97
2019-01-31T11:29:22.505Z,5.37
2019-01-31T11:32:28.907Z,5.03
2019-01-31T11:35:31.939Z,5.50
2019-01-31T11:38:29.112Z,5.17
2019-01-31T11:41:22.988Z,5.40
2019-01-31T11:44:05.163Z,5.13
2019-01-31T11:46:41.201Z,5.87
2019-01-31T11:49:29.492Z,6.23
2019-01-31T11:52:16.258Z,4.50
2019-01-31T11:55:19.579Z,4.63
2019-01-31T11:58:06.122Z,4.63
2019-01-31T12:00:35.122Z,5.07
2019-01-31T12:03:04.347Z,5.33
2019-01-31T12:05:33.388Z,5.70
2019-01-31T12:08:02.367Z,5.57
2019-01-31T12:10:31.460Z,4.90
2019-01-31T12:13:00.641Z,5.20
2019-01-31T12:15:29.686Z,4.47
2019-01-31T12:17:58.660Z,5.00
2019-01-31T12:20:27.696Z,4.87
2019-01-31T12:22:56.789Z,5.63
2019-01-31T12:25:25.807Z,5.20
2019-01-31T12:27:54.881Z,5.10
2019-01-31T12:30:24.931Z,4.23
2019-01-31T12:32:53.976Z,4.73
2019-01-31T12:35:22.975Z,4.47
2019-01-31T12:37:52.060Z,4.37
2019-01-31T12:40:21.052Z,4.07
2019-01-31T12:42:50.034Z,4.60
2019-01-31T12:45:19.396Z,4.60
2019-01-31T12:47:48.364Z,4.27
2019-01-31T12:50:18.583Z,4.70
2019-01-31T12:52:47.556Z,4.90
2019-01-31T12:55:16.552Z,5.07
2019-01-31T12:57:45.517Z,4.70
2019-01-31T13:00:16.792Z,4.87
2019-01-31T13:02:45.763Z,4.47
2019-01-31T13:05:15.201Z,4.27
2019-01-31T13:07:44.659Z,4.40
2019-01-31T13:10:13.738Z,4.33
2019-01-31T13:12:48.938Z,3.97
2019-01-31T13:15:14.136Z,4.40
2019-01-31T13:17:43.304Z,3.83
2019-01-31T13:20:13.947Z,4.37
2019-01-31T13:22:43.426Z,4.77
2019-01-31T13:25:12.670Z,4.53
2019-01-31T13:27:41.750Z,3.80
2019-01-31T13:30:11.859Z,4.60
2019-01-31T13:32:40.947Z,4.83
2019-01-31T13:35:10.194Z,4.00
2019-01-31T13:37:39.346Z,4.43
2019-01-31T13:40:10.489Z,4.63
2019-01-31T13:42:39.502Z,4.13
2019-01-31T13:45:09.503Z,3.93
2019-01-31T13:47:40.297Z,9.30
2019-01-31T13:50:09.933Z,20.47
2019-01-31T13:52:38.997Z,11.83
2019-01-31T13:55:21.365Z,15.67
2019-01-31T13:57:50.341Z,10.13
2019-01-31T14:00:20.436Z,7.03
2019-01-31T14:02:49.694Z,6.43
2019-01-31T14:05:18.699Z,5.03
2019-01-31T14:07:47.714Z,10.00
2019-01-31T14:10:18.680Z,30.00
2019-01-31T14:12:47.723Z,29.10
2019-01-31T14:15:18.110Z,10.93
2019-01-31T14:17:47.176Z,6.60
2019-01-31T14:20:17.522Z,4.90
2019-01-31T14:22:46.505Z,4.07
2019-01-31T14:25:15.559Z,4.50
2019-01-31T14:27:44.557Z,6.90
2019-01-31T14:30:15.762Z,4.83
2019-01-31T14:32:45.246Z,6.07
2019-01-31T14:35:14.235Z,3.53
2019-01-31T14:37:43.227Z,3.40
2019-01-31T14:40:12.301Z,3.47
2019-01-31T14:42:41.376Z,4.20
2019-01-31T14:45:10.711Z,3.93
2019-01-31T14:47:39.752Z,4.47
2019-01-31T14:50:10.365Z,3.67
2019-01-31T14:52:39.366Z,4.03
2019-01-31T14:55:08.647Z,5.00
2019-01-31T14:57:37.631Z,3.93
2019-01-31T15:00:08.381Z,9.30
2019-01-31T15:02:37.453Z,7.37
2019-01-31T15:05:07.765Z,5.43
2019-01-31T15:07:36.779Z,8.03
2019-01-31T15:10:06.625Z,7.93
2019-01-31T15:12:35.608Z,9.77
2019-01-31T15:15:05.434Z,12.17
2019-01-31T15:17:34.467Z,11.73
2019-01-31T15:20:04.303Z,4.20
2019-01-31T15:22:33.354Z,4.63
2019-01-31T15:25:02.436Z,4.83
2019-01-31T15:27:31.517Z,3.80
2019-01-31T15:30:00.593Z,7.50
2019-01-31T15:32:32.771Z,7.57
2019-01-31T15:35:00.366Z,8.63
2019-01-31T15:37:29.391Z,4.60
2019-01-31T15:39:59.543Z,4.70
2019-01-31T15:42:28.608Z,5.07
2019-01-31T15:44:57.706Z,5.10
2019-01-31T15:47:26.708Z,4.17
2019-01-31T15:50:14.767Z,3.43
2019-01-31T15:52:43.832Z,4.77
2019-01-31T15:55:13.372Z,3.70
2019-01-31T15:57:42.458Z,5.70
2019-01-31T16:00:15.897Z,4.73
2019-01-31T16:02:44.986Z,5.17
2019-01-31T16:05:19.019Z,5.60
2019-01-31T16:07:44.671Z,4.97
2019-01-31T16:10:16.790Z,6.47
2019-01-31T16:12:45.811Z,6.13
2019-01-31T16:15:15.154Z,5.20
2019-01-31T16:17:44.189Z,4.20
2019-01-31T16:20:13.242Z,6.63
2019-01-31T16:22:42.416Z,6.20
2019-01-31T16:25:11.575Z,5.90
2019-01-31T16:27:40.570Z,6.03
2019-01-31T16:30:10.512Z,4.90
2019-01-31T16:32:39.611Z,4.70
2019-01-31T16:35:09.706Z,5.10
2019-01-31T16:37:38.687Z,6.53
2019-01-31T16:40:08.698Z,5.53
2019-01-31T16:42:37.693Z,6.93
2019-01-31T16:45:07.567Z,5.33
2019-01-31T16:47:36.561Z,5.73
2019-01-31T16:50:06.703Z,5.13
2019-01-31T16:52:35.695Z,5.40
2019-01-31T16:55:05.302Z,5.47
2019-01-31T16:57:34.294Z,7.33
2019-01-31T17:00:03.415Z,6.50
2019-01-31T17:02:32.400Z,13.60
2019-01-31T17:05:01.474Z,6.37
2019-01-31T17:07:30.554Z,9.97
2019-01-31T17:09:59.615Z,6.60
2019-01-31T17:12:28.619Z,10.43
2019-01-31T17:14:57.681Z,6.87
2019-01-31T17:17:26.692Z,6.77
2019-01-31T17:19:55.776Z,6.90
2019-01-31T17:22:24.783Z,6.23
2019-01-31T17:24:53.783Z,6.70
2019-01-31T17:27:22.956Z,6.00
2019-01-31T17:29:51.991Z,7.13
2019-01-31T17:32:20.981Z,6.90
2019-01-31T17:34:50.120Z,5.03
2019-01-31T17:37:19.219Z,9.77
2019-01-31T17:39:48.189Z,5.57
2019-01-31T17:42:17.186Z,6.43
2019-01-31T17:44:46.283Z,13.60
2019-01-31T17:47:15.455Z,7.33
2019-01-31T17:49:44.419Z,5.63
2019-01-31T17:52:13.485Z,7.00
2019-01-31T17:54:42.471Z,5.53
2019-01-31T17:57:11.546Z,6.30
2019-01-31T17:59:40.513Z,5.77
2019-01-31T18:02:09.695Z,6.77
2019-01-31T18:04:38.814Z,6.23
2019-01-31T18:07:07.939Z,7.87
2019-01-31T18:09:38.098Z,7.03
2019-01-31T18:12:07.225Z,6.30
2019-01-31T18:14:36.193Z,5.83
2019-01-31T18:17:05.460Z,5.67
2019-01-31T18:19:34.629Z,6.03
2019-01-31T18:22:06.849Z,5.50
2019-01-31T18:24:36.238Z,5.27
2019-01-31T18:27:05.471Z,8.60
2019-01-31T18:29:34.727Z,7.70
2019-01-31T18:32:03.910Z,7.95
2019-01-31T18:34:32.923Z,5.13
2019-01-31T18:37:01.969Z,5.17
2019-01-31T18:39:31.084Z,6.63
2019-01-31T18:42:00.555Z,4.93
2019-01-31T18:44:29.606Z,5.07
2019-01-31T18:46:58.817Z,4.37
2019-01-31T18:49:28.205Z,7.27
2019-01-31T18:51:57.195Z,8.07
2019-01-31T18:54:26.351Z,5.50
2019-01-31T18:56:55.435Z,5.23
2019-01-31T18:59:24.455Z,5.60
2019-01-31T19:01:53.563Z,5.00
2019-01-31T19:04:22.699Z,5.20
2019-01-31T19:06:51.827Z,6.37
2019-01-31T19:09:20.899Z,5.50
2019-01-31T19:11:49.880Z,5.70
2019-01-31T19:14:18.865Z,5.80
2019-01-31T19:16:47.838Z,5.67
2019-01-31T19:19:16.836Z,5.37
2019-01-31T19:21:45.818Z,5.13
2019-01-31T19:24:14.917Z,4.10
2019-01-31T19:26:43.987Z,4.90
2019-01-31T19:29:12.981Z,4.57
2019-01-31T19:31:42.052Z,4.80
2019-01-31T19:34:11.230Z,4.73
2019-01-31T19:36:40.428Z,5.00
2019-01-31T19:39:13.971Z,5.07
2019-01-31T19:41:42.962Z,5.13
2019-01-31T19:44:12.014Z,5.07
2019-01-31T19:46:41.065Z,4.80
2019-01-31T19:49:10.059Z,4.83
2019-01-31T19:51:39.236Z,4.23
2019-01-31T19:54:08.311Z,5.13
2019-01-31T19:56:37.315Z,6.83
2019-01-31T19:59:06.801Z,4.83
2019-01-31T20:01:35.995Z,4.27
2019-01-31T20:04:05.187Z,4.73
2019-01-31T20:06:34.661Z,4.50
2019-01-31T20:09:06.977Z,4.50
2019-01-31T20:11:36.040Z,4.77
2019-01-31T20:14:05.129Z,4.00
2019-01-31T20:16:34.195Z,3.90
2019-01-31T20:19:03.180Z,4.57
2019-01-31T20:21:32.360Z,4.63
2019-01-31T20:24:01.516Z,5.67
2019-01-31T20:26:30.614Z,5.17
2019-01-31T20:28:59.692Z,5.10
2019-01-31T20:31:28.660Z,4.40
2019-01-31T20:33:57.665Z,5.40
2019-01-31T20:36:26.749Z,5.87
2019-01-31T20:38:55.824Z,6.27
2019-01-31T20:41:27.387Z,7.77
2019-01-31T20:43:55.668Z,7.03
2019-01-31T20:46:24.680Z,6.10
2019-01-31T20:48:53.842Z,4.30
2019-01-31T20:51:22.876Z,4.87
2019-01-31T20:53:51.873Z,5.63
2019-01-31T20:56:20.885Z,5.33
2019-01-31T20:58:49.886Z,6.00
2019-01-31T21:01:18.903Z,7.63
2019-01-31T21:03:49.615Z,5.60
2019-01-31T21:06:18.812Z,4.87
2019-01-31T21:08:47.853Z,3.43
2019-01-31T21:11:16.852Z,4.43
2019-01-31T21:13:45.854Z,4.27
2019-01-31T21:16:15.000Z,4.03
2019-01-31T21:18:44.026Z,3.97
2019-01-31T21:21:13.015Z,4.17
2019-01-31T21:23:42.042Z,4.20
2019-01-31T21:26:11.203Z,4.20
2019-01-31T21:28:40.291Z,4.57
2019-01-31T21:31:09.406Z,3.80
2019-01-31T21:33:38.378Z,3.73
2019-01-31T21:36:07.523Z,5.43
2019-01-31T21:38:36.571Z,3.90
2019-01-31T21:41:05.768Z,5.03
2019-01-31T21:43:34.758Z,4.63
2019-01-31T21:46:03.767Z,4.90
2019-01-31T21:48:32.744Z,6.30
2019-01-31T21:51:01.766Z,5.53
2019-01-31T21:53:30.786Z,5.50
2019-01-31T21:55:59.827Z,4.50
2019-01-31T21:58:28.792Z,5.70
2019-01-31T22:00:57.852Z,4.80
2019-01-31T22:03:26.845Z,6.07
2019-01-31T22:05:55.995Z,5.40
2019-01-31T22:08:25.102Z,6.17
2019-01-31T22:10:54.151Z,5.73
2019-01-31T22:13:23.149Z,6.00
2019-01-31T22:15:52.242Z,5.87
2019-01-31T22:18:21.286Z,7.23
2019-01-31T22:20:50.336Z,5.60
2019-01-31T22:23:19.327Z,5.07
2019-01-31T22:25:48.398Z,5.13
2019-01-31T22:28:17.390Z,6.40
2019-01-31T22:30:46.424Z,7.73
2019-01-31T22:33:15.411Z,4.93
2019-01-31T22:35:44.470Z,5.67
2019-01-31T22:38:13.463Z,6.77
2019-01-31T22:40:42.466Z,6.00
2019-01-31T22:43:11.499Z,8.87
2019-01-31T22:45:40.538Z,6.57
2019-01-31T22:48:09.544Z,16.80
2019-01-31T22:50:38.525Z,19.83
2019-01-31T22:53:07.683Z,21.10
2019-01-31T22:55:37.386Z,14.10
2019-01-31T22:58:06.869Z,15.57
2019-01-31T23:01:24.674Z,12.80
2019-01-31T23:03:53.816Z,12.10
2019-01-31T23:06:23.122Z,11.13
2019-01-31T23:08:53.792Z,10.47
2019-01-31T23:11:26.548Z,10.60
2019-01-31T23:13:55.567Z,9.57
2019-01-31T23:16:24.642Z,9.70
2019-01-31T23:18:53.602Z,6.73
2019-01-31T23:21:22.628Z,8.53
2019-01-31T23:23:51.673Z,10.53
2019-01-31T23:26:22.540Z,7.33
2019-01-31T23:28:51.548Z,5.67
2019-01-31T23:31:20.563Z,8.23
2019-01-31T23:33:49.571Z,8.33
2019-01-31T23:36:18.571Z,9.30
2019-01-31T23:38:47.655Z,11.37
2019-01-31T23:41:16.719Z,9.50
2019-01-31T23:43:45.740Z,8.30
2019-01-31T23:46:14.768Z,6.60
2019-01-31T23:48:43.747Z,4.93
2019-01-31T23:51:12.773Z,4.13
2019-01-31T23:53:41.759Z,7.40
2019-01-31T23:56:10.867Z,7.30
2019-01-31T23:58:40.159Z,9.37
